sensor_id;sensor_type;location;lat;lon;timestamp;pressure;altitude;pressure_sealevel;temperature;humidity
28312;BME280;15572;48.810;9.148;2023-03-19T00:05:13;97800.81;;;9.10;86.33
28312;BME280;15572;48.810;9.148;2023-03-19T00:10:10;97797.88;;;9.05;86.38
28312;BME280;15572;48.810;9.148;2023-03-19T00:15:07;97813.19;;;8.98;87.28
28312;BME280;15572;48.810;9.148;2023-03-19T00:20:09;97806.13;;;8.97;88.09
28312;BME280;15572;48.810;9.148;2023-03-19T00:25:08;97804.94;;;9.06;87.43
28312;BME280;15572;48.810;9.148;2023-03-19T00:30:06;97803.94;;;9.07;88.02
28312;BME280;15572;48.810;9.148;2023-03-19T00:35:03;97806.94;;;8.98;88.49
28312;BME280;15572;48.810;9.148;2023-03-19T00:40:01;97809.91;;;9.03;88.40
28312;BME280;15572;48.810;9.148;2023-03-19T00:44:59;97810.59;;;9.11;88.04
28312;BME280;15572;48.810;9.148;2023-03-19T00:49:56;97816.66;;;9.13;87.98
28312;BME280;15572;48.810;9.148;2023-03-19T00:54:52;97815.34;;;9.09;86.61
28312;BME280;15572;48.810;9.148;2023-03-19T00:59:49;97812.41;;;9.04;86.50
28312;BME280;15572;48.810;9.148;2023-03-19T01:04:48;97812.41;;;9.04;87.13
28312;BME280;15572;48.810;9.148;2023-03-19T01:09:44;97816.59;;;9.07;87.25
28312;BME280;15572;48.810;9.148;2023-03-19T01:14:41;97823.19;;;9.04;87.51
28312;BME280;15572;48.810;9.148;2023-03-19T01:19:37;97833.22;;;9.10;87.08
28312;BME280;15572;48.810;9.148;2023-03-19T01:24:35;97837.00;;;9.16;87.87
28312;BME280;15572;48.810;9.148;2023-03-19T01:29:31;97849.53;;;9.23;87.54
28312;BME280;15572;48.810;9.148;2023-03-19T01:34:28;97841.19;;;9.18;85.60
28312;BME280;15572;48.810;9.148;2023-03-19T01:39:24;97849.66;;;9.15;84.84
28312;BME280;15572;48.810;9.148;2023-03-19T01:44:25;97855.13;;;9.22;84.85
28312;BME280;15572;48.810;9.148;2023-03-19T01:49:22;97874.09;;;9.28;86.11
28312;BME280;15572;48.810;9.148;2023-03-19T01:54:22;97865.41;;;9.33;83.42
28312;BME280;15572;48.810;9.148;2023-03-19T01:59:22;97875.25;;;9.75;81.06
28312;BME280;15572;48.810;9.148;2023-03-19T02:04:22;97870.34;;;10.33;76.63
28312;BME280;15572;48.810;9.148;2023-03-19T02:09:19;97877.34;;;10.68;74.81
28312;BME280;15572;48.810;9.148;2023-03-19T02:14:16;97870.28;;;10.87;76.13
28312;BME280;15572;48.810;9.148;2023-03-19T02:19:16;97880.72;;;11.23;78.78
28312;BME280;15572;48.810;9.148;2023-03-19T02:24:19;97896.59;;;11.26;100.00
28312;BME280;15572;48.810;9.148;2023-03-19T02:29:18;97903.41;;;10.82;100.00
28312;BME280;15572;48.810;9.148;2023-03-19T02:34:37;97900.19;;;10.52;100.00
28312;BME280;15572;48.810;9.148;2023-03-19T02:39:39;97873.84;;;10.20;100.00
28312;BME280;15572;48.810;9.148;2023-03-19T02:44:39;97873.94;;;9.99;100.00
28312;BME280;15572;48.810;9.148;2023-03-19T02:49:35;97886.38;;;9.93;100.00
28312;BME280;15572;48.810;9.148;2023-03-19T02:54:31;97873.44;;;9.82;100.00
28312;BME280;15572;48.810;9.148;2023-03-19T02:59:28;97883.34;;;9.75;100.00
28312;BME280;15572;48.810;9.148;2023-03-19T03:04:27;97877.72;;;9.70;100.00
28312;BME280;15572;48.810;9.148;2023-03-19T03:09:26;97891.03;;;9.71;100.00
28312;BME280;15572;48.810;9.148;2023-03-19T03:14:22;97886.84;;;9.69;100.00
28312;BME280;15572;48.810;9.148;2023-03-19T03:19:19;97893.03;;;9.63;100.00
28312;BME280;15572;48.810;9.148;2023-03-19T03:24:17;97894.66;;;9.57;100.00
28312;BME280;15572;48.810;9.148;2023-03-19T03:29:13;97880.47;;;9.49;100.00
28312;BME280;15572;48.810;9.148;2023-03-19T03:34:10;97883.38;;;9.47;100.00
28312;BME280;15572;48.810;9.148;2023-03-19T03:39:07;97890.63;;;9.47;100.00
28312;BME280;15572;48.810;9.148;2023-03-19T03:44:05;97891.63;;;9.39;100.00
28312;BME280;15572;48.810;9.148;2023-03-19T03:49:01;97883.28;;;9.34;100.00
28312;BME280;15572;48.810;9.148;2023-03-19T03:53:58;97896.81;;;9.41;100.00
28312;BME280;15572;48.810;9.148;2023-03-19T03:58:54;97904.94;;;9.41;100.00
28312;BME280;15572;48.810;9.148;2023-03-19T04:03:53;97918.84;;;9.38;100.00
28312;BME280;15572;48.810;9.148;2023-03-19T04:08:51;97916.53;;;9.35;100.00
28312;BME280;15572;48.810;9.148;2023-03-19T04:13:48;97918.59;;;9.33;100.00
28312;BME280;15572;48.810;9.148;2023-03-19T04:18:44;97914.47;;;9.37;100.00
28312;BME280;15572;48.810;9.148;2023-03-19T04:23:42;97918.25;;;9.42;100.00
28312;BME280;15572;48.810;9.148;2023-03-19T04:28:39;97918.00;;;9.37;100.00
28312;BME280;15572;48.810;9.148;2023-03-19T04:33:37;97924.91;;;9.40;100.00
28312;BME280;15572;48.810;9.148;2023-03-19T04:38:36;97929.50;;;9.46;100.00
28312;BME280;15572;48.810;9.148;2023-03-19T04:43:33;97934.09;;;9.45;100.00
28312;BME280;15572;48.810;9.148;2023-03-19T04:48:30;97936.56;;;9.47;100.00
28312;BME280;15572;48.810;9.148;2023-03-19T04:53:28;97937.41;;;9.47;100.00
28312;BME280;15572;48.810;9.148;2023-03-19T04:58:24;97934.34;;;9.50;100.00
28312;BME280;15572;48.810;9.148;2023-03-19T05:03:23;97944.94;;;9.52;100.00
28312;BME280;15572;48.810;9.148;2023-03-19T05:08:19;97938.91;;;9.50;100.00
28312;BME280;15572;48.810;9.148;2023-03-19T05:13:16;97945.41;;;9.62;100.00
28312;BME280;15572;48.810;9.148;2023-03-19T05:18:13;97956.88;;;9.64;100.00
28312;BME280;15572;48.810;9.148;2023-03-19T05:23:11;97951.03;;;9.60;100.00
28312;BME280;15572;48.810;9.148;2023-03-19T05:28:07;97965.75;;;9.58;100.00
28312;BME280;15572;48.810;9.148;2023-03-19T05:33:04;97956.97;;;9.49;100.00
28312;BME280;15572;48.810;9.148;2023-03-19T05:38:01;97960.28;;;9.51;100.00
28312;BME280;15572;48.810;9.148;2023-03-19T05:42:59;97964.31;;;9.55;100.00
28312;BME280;15572;48.810;9.148;2023-03-19T05:47:59;97968.47;;;9.58;100.00
28312;BME280;15572;48.810;9.148;2023-03-19T05:52:56;97975.53;;;9.59;100.00
28312;BME280;15572;48.810;9.148;2023-03-19T05:57:52;97980.78;;;9.60;100.00
28312;BME280;15572;48.810;9.148;2023-03-19T06:02:51;97978.69;;;9.62;100.00
28312;BME280;15572;48.810;9.148;2023-03-19T06:07:48;97982.03;;;9.64;100.00
28312;BME280;15572;48.810;9.148;2023-03-19T06:12:45;97992.91;;;9.71;100.00
28312;BME280;15572;48.810;9.148;2023-03-19T06:17:42;97993.00;;;9.84;100.00
28312;BME280;15572;48.810;9.148;2023-03-19T06:22:40;97992.09;;;10.05;100.00
28312;BME280;15572;48.810;9.148;2023-03-19T06:27:37;97993.25;;;10.17;100.00
28312;BME280;15572;48.810;9.148;2023-03-19T06:32:34;97988.09;;;10.22;100.00
28312;BME280;15572;48.810;9.148;2023-03-19T06:37:31;97989.34;;;10.26;100.00
28312;BME280;15572;48.810;9.148;2023-03-19T06:42:29;97991.31;;;10.39;98.76
28312;BME280;15572;48.810;9.148;2023-03-19T06:47:25;97987.63;;;10.53;99.57
28312;BME280;15572;48.810;9.148;2023-03-19T06:52:22;97985.78;;;10.60;99.74
28312;BME280;15572;48.810;9.148;2023-03-19T06:57:19;97993.34;;;10.71;99.55
28312;BME280;15572;48.810;9.148;2023-03-19T07:02:16;98005.66;;;10.80;98.68
28312;BME280;15572;48.810;9.148;2023-03-19T07:07:13;98005.50;;;10.88;98.58
28312;BME280;15572;48.810;9.148;2023-03-19T07:12:11;97999.84;;;10.90;99.61
28312;BME280;15572;48.810;9.148;2023-03-19T07:17:07;98000.50;;;10.92;100.00
28312;BME280;15572;48.810;9.148;2023-03-19T07:22:05;98003.63;;;10.95;98.16
28312;BME280;15572;48.810;9.148;2023-03-19T07:27:02;98012.22;;;11.06;93.60
28312;BME280;15572;48.810;9.148;2023-03-19T07:31:58;98007.84;;;11.18;92.32
28312;BME280;15572;48.810;9.148;2023-03-19T07:36:54;98014.34;;;11.30;92.48
28312;BME280;15572;48.810;9.148;2023-03-19T07:41:52;98009.38;;;11.40;89.75
28312;BME280;15572;48.810;9.148;2023-03-19T07:46:49;98025.44;;;11.48;89.30
28312;BME280;15572;48.810;9.148;2023-03-19T07:51:45;98030.25;;;11.66;88.92
28312;BME280;15572;48.810;9.148;2023-03-19T07:56:42;98030.91;;;11.81;88.16
28312;BME280;15572;48.810;9.148;2023-03-19T08:01:40;98030.72;;;11.96;85.67
28312;BME280;15572;48.810;9.148;2023-03-19T08:06:36;98030.50;;;12.10;85.68
28312;BME280;15572;48.810;9.148;2023-03-19T08:11:34;98032.78;;;12.27;85.21
28312;BME280;15572;48.810;9.148;2023-03-19T08:16:31;98028.34;;;12.45;83.84
28312;BME280;15572;48.810;9.148;2023-03-19T08:21:29;98029.63;;;12.49;84.01
28312;BME280;15572;48.810;9.148;2023-03-19T08:26:27;98037.50;;;12.64;84.69
28312;BME280;15572;48.810;9.148;2023-03-19T08:31:24;98027.41;;;12.78;84.20
28312;BME280;15572;48.810;9.148;2023-03-19T08:36:21;98031.13;;;12.96;85.08
28312;BME280;15572;48.810;9.148;2023-03-19T08:41:19;98035.25;;;13.12;84.05
28312;BME280;15572;48.810;9.148;2023-03-19T08:46:15;98036.47;;;13.23;83.54
28312;BME280;15572;48.810;9.148;2023-03-19T08:51:12;98038.38;;;13.16;83.35
28312;BME280;15572;48.810;9.148;2023-03-19T08:56:09;98042.13;;;13.15;83.34
28312;BME280;15572;48.810;9.148;2023-03-19T09:01:08;98052.81;;;13.16;83.08
28312;BME280;15572;48.810;9.148;2023-03-19T09:06:08;98052.97;;;13.21;82.72
28312;BME280;15572;48.810;9.148;2023-03-19T09:11:05;98064.75;;;13.46;81.15
28312;BME280;15572;48.810;9.148;2023-03-19T09:16:02;98059.94;;;13.80;78.88
28312;BME280;15572;48.810;9.148;2023-03-19T09:21:00;98054.75;;;14.03;76.00
28312;BME280;15572;48.810;9.148;2023-03-19T09:25:56;98050.44;;;14.20;74.69
28312;BME280;15572;48.810;9.148;2023-03-19T09:30:53;98053.84;;;14.34;74.42
28312;BME280;15572;48.810;9.148;2023-03-19T09:35:51;98039.88;;;14.30;73.86
28312;BME280;15572;48.810;9.148;2023-03-19T09:40:55;98043.84;;;14.28;73.33
28312;BME280;15572;48.810;9.148;2023-03-19T09:45:58;98045.88;;;14.39;73.34
28312;BME280;15572;48.810;9.148;2023-03-19T09:50:59;98034.19;;;14.75;71.91
28312;BME280;15572;48.810;9.148;2023-03-19T09:56:01;98041.72;;;15.28;70.62
28312;BME280;15572;48.810;9.148;2023-03-19T10:01:01;98036.78;;;15.36;65.10
28312;BME280;15572;48.810;9.148;2023-03-19T10:06:09;98032.94;;;15.26;58.61
28312;BME280;15572;48.810;9.148;2023-03-19T10:11:32;98022.44;;;15.59;58.78
28312;BME280;15572;48.810;9.148;2023-03-19T10:16:33;98022.13;;;15.79;55.08
28312;BME280;15572;48.810;9.148;2023-03-19T10:21:33;98013.59;;;15.98;56.36
28312;BME280;15572;48.810;9.148;2023-03-19T10:26:35;98016.47;;;16.15;57.22
28312;BME280;15572;48.810;9.148;2023-03-19T10:31:41;98012.09;;;16.37;54.62
28312;BME280;15572;48.810;9.148;2023-03-19T10:36:39;98007.25;;;16.63;54.75
28312;BME280;15572;48.810;9.148;2023-03-19T10:41:46;98001.53;;;16.64;55.54
28312;BME280;15572;48.810;9.148;2023-03-19T10:46:44;97997.38;;;16.50;49.96
28312;BME280;15572;48.810;9.148;2023-03-19T10:51:42;97993.22;;;16.24;48.73
28312;BME280;15572;48.810;9.148;2023-03-19T10:56:46;97993.94;;;16.31;46.32
28312;BME280;15572;48.810;9.148;2023-03-19T11:01:42;97992.88;;;16.32;47.03
28312;BME280;15572;48.810;9.148;2023-03-19T11:06:39;97992.88;;;16.44;46.22
28312;BME280;15572;48.810;9.148;2023-03-19T11:11:41;97980.41;;;16.60;46.13
28312;BME280;15572;48.810;9.148;2023-03-19T11:16:56;97978.84;;;16.75;47.07
28312;BME280;15572;48.810;9.148;2023-03-19T11:22:07;97978.09;;;16.80;46.89
28312;BME280;15572;48.810;9.148;2023-03-19T11:27:05;97980.91;;;16.97;47.41
28312;BME280;15572;48.810;9.148;2023-03-19T11:32:13;97970.75;;;17.37;47.24
28312;BME280;15572;48.810;9.148;2023-03-19T11:37:17;97969.00;;;17.59;46.67
28312;BME280;15572;48.810;9.148;2023-03-19T11:48:15;97960.28;;;19.06;44.00
28312;BME280;15572;48.810;9.148;2023-03-19T11:53:20;97947.63;;;18.62;42.62
28312;BME280;15572;48.810;9.148;2023-03-19T11:58:53;97951.53;;;17.77;43.48
28312;BME280;15572;48.810;9.148;2023-03-19T12:04:09;97951.94;;;17.86;44.42
28312;BME280;15572;48.810;9.148;2023-03-19T12:09:16;97948.63;;;18.00;43.49
28312;BME280;15572;48.810;9.148;2023-03-19T12:14:21;97937.19;;;17.87;44.06
28312;BME280;15572;48.810;9.148;2023-03-19T12:19:34;97944.72;;;17.96;43.92
28312;BME280;15572;48.810;9.148;2023-03-19T12:24:50;97928.53;;;18.12;43.78
28312;BME280;15572;48.810;9.148;2023-03-19T12:29:57;97931.97;;;18.40;43.25
28312;BME280;15572;48.810;9.148;2023-03-19T12:35:00;97936.63;;;18.78;42.96
28312;BME280;15572;48.810;9.148;2023-03-19T12:40:05;97933.97;;;18.28;43.67
28312;BME280;15572;48.810;9.148;2023-03-19T12:45:22;97936.38;;;17.41;46.12
28312;BME280;15572;48.810;9.148;2023-03-19T12:50:23;97953.09;;;16.60;50.90
28312;BME280;15572;48.810;9.148;2023-03-19T12:55:26;97942.88;;;15.85;55.59
28312;BME280;15572;48.810;9.148;2023-03-19T13:00:33;97954.34;;;15.64;57.26
28312;BME280;15572;48.810;9.148;2023-03-19T13:05:35;97962.81;;;15.14;60.09
28312;BME280;15572;48.810;9.148;2023-03-19T13:10:34;97970.56;;;14.51;65.06
28312;BME280;15572;48.810;9.148;2023-03-19T13:15:34;97986.78;;;13.97;73.67
28312;BME280;15572;48.810;9.148;2023-03-19T13:20:49;97979.69;;;13.39;94.30
28312;BME280;15572;48.810;9.148;2023-03-19T13:25:47;97972.69;;;12.81;92.35
28312;BME280;15572;48.810;9.148;2023-03-19T13:30:57;97963.25;;;13.28;94.06
28312;BME280;15572;48.810;9.148;2023-03-19T13:35:56;97964.69;;;13.62;97.96
28312;BME280;15572;48.810;9.148;2023-03-19T13:40:57;97949.41;;;13.61;96.13
28312;BME280;15572;48.810;9.148;2023-03-19T13:46:03;97947.38;;;13.56;94.64
28312;BME280;15572;48.810;9.148;2023-03-19T13:51:03;97954.56;;;13.44;97.94
28312;BME280;15572;48.810;9.148;2023-03-19T13:56:03;97963.63;;;13.31;100.00
28312;BME280;15572;48.810;9.148;2023-03-19T14:01:00;97959.34;;;13.17;100.00
28312;BME280;15572;48.810;9.148;2023-03-19T14:05:57;97961.22;;;13.10;100.00
28312;BME280;15572;48.810;9.148;2023-03-19T14:10:57;97964.31;;;13.20;100.00
28312;BME280;15572;48.810;9.148;2023-03-19T14:16:03;97960.63;;;13.71;100.00
28312;BME280;15572;48.810;9.148;2023-03-19T14:21:04;97950.72;;;14.01;100.00
28312;BME280;15572;48.810;9.148;2023-03-19T14:26:05;97939.75;;;14.51;95.94
28312;BME280;15572;48.810;9.148;2023-03-19T14:31:05;97943.28;;;14.88;91.19
28312;BME280;15572;48.810;9.148;2023-03-19T14:36:16;97949.00;;;14.98;82.04
28312;BME280;15572;48.810;9.148;2023-03-19T14:41:19;97946.63;;;15.01;75.70
28312;BME280;15572;48.810;9.148;2023-03-19T14:46:18;97952.69;;;14.73;79.23
28312;BME280;15572;48.810;9.148;2023-03-19T14:51:35;97965.63;;;14.42;79.65
28312;BME280;15572;48.810;9.148;2023-03-19T14:56:46;97961.34;;;14.09;81.19
28312;BME280;15572;48.810;9.148;2023-03-19T15:01:47;97962.66;;;14.00;78.01
28312;BME280;15572;48.810;9.148;2023-03-19T15:06:49;97965.22;;;13.95;79.87
28312;BME280;15572;48.810;9.148;2023-03-19T15:12:11;97970.09;;;14.11;78.47
28312;BME280;15572;48.810;9.148;2023-03-19T15:17:17;97965.06;;;14.15;77.56
28312;BME280;15572;48.810;9.148;2023-03-19T15:22:19;97973.75;;;14.23;75.16
28312;BME280;15572;48.810;9.148;2023-03-19T15:27:20;97979.41;;;14.04;74.36
28312;BME280;15572;48.810;9.148;2023-03-19T15:32:31;97977.19;;;13.94;75.55
28312;BME280;15572;48.810;9.148;2023-03-19T15:37:30;97980.00;;;13.81;77.52
28312;BME280;15572;48.810;9.148;2023-03-19T15:42:30;97984.59;;;13.56;80.78
28312;BME280;15572;48.810;9.148;2023-03-19T15:47:29;97981.53;;;13.45;81.27
28312;BME280;15572;48.810;9.148;2023-03-19T15:52:30;97996.25;;;13.31;84.77
28312;BME280;15572;48.810;9.148;2023-03-19T15:57:27;97996.38;;;13.05;88.63
28312;BME280;15572;48.810;9.148;2023-03-19T16:02:28;98010.91;;;12.79;90.37
28312;BME280;15572;48.810;9.148;2023-03-19T16:07:34;98024.75;;;12.64;100.00
28312;BME280;15572;48.810;9.148;2023-03-19T16:12:36;98030.28;;;12.25;100.00
28312;BME280;15572;48.810;9.148;2023-03-19T16:17:34;98042.41;;;11.90;100.00
28312;BME280;15572;48.810;9.148;2023-03-19T16:22:31;98051.31;;;11.57;100.00
28312;BME280;15572;48.810;9.148;2023-03-19T16:27:33;98061.72;;;11.47;100.00
28312;BME280;15572;48.810;9.148;2023-03-19T16:32:31;98068.81;;;11.48;100.00
28312;BME280;15572;48.810;9.148;2023-03-19T16:37:39;98070.69;;;11.48;100.00
28312;BME280;15572;48.810;9.148;2023-03-19T16:42:37;98071.72;;;11.47;100.00
28312;BME280;15572;48.810;9.148;2023-03-19T16:47:34;98080.06;;;11.45;100.00
28312;BME280;15572;48.810;9.148;2023-03-19T16:52:31;98074.63;;;11.45;100.00
28312;BME280;15572;48.810;9.148;2023-03-19T16:57:29;98090.47;;;11.42;100.00
28312;BME280;15572;48.810;9.148;2023-03-19T17:02:26;98087.31;;;11.38;100.00
28312;BME280;15572;48.810;9.148;2023-03-19T17:07:22;98087.09;;;11.33;100.00
28312;BME280;15572;48.810;9.148;2023-03-19T17:12:19;98091.72;;;11.32;100.00
28312;BME280;15572;48.810;9.148;2023-03-19T17:17:18;98097.13;;;11.32;100.00
28312;BME280;15572;48.810;9.148;2023-03-19T17:22:16;98105.84;;;11.28;100.00
28312;BME280;15572;48.810;9.148;2023-03-19T17:27:12;98118.97;;;11.24;100.00
28312;BME280;15572;48.810;9.148;2023-03-19T17:32:15;98132.50;;;11.18;100.00
28312;BME280;15572;48.810;9.148;2023-03-19T17:37:13;98149.44;;;10.92;100.00
28312;BME280;15572;48.810;9.148;2023-03-19T17:42:16;98147.91;;;10.76;100.00
28312;BME280;15572;48.810;9.148;2023-03-19T17:47:13;98143.94;;;10.72;100.00
28312;BME280;15572;48.810;9.148;2023-03-19T17:52:14;98148.22;;;10.60;100.00
28312;BME280;15572;48.810;9.148;2023-03-19T17:57:13;98154.56;;;10.46;100.00
28312;BME280;15572;48.810;9.148;2023-03-19T18:02:24;98150.06;;;10.32;100.00
28312;BME280;15572;48.810;9.148;2023-03-19T18:07:23;98147.13;;;10.27;100.00
28312;BME280;15572;48.810;9.148;2023-03-19T18:12:19;98149.81;;;10.27;100.00
28312;BME280;15572;48.810;9.148;2023-03-19T18:17:16;98150.72;;;10.34;100.00
28312;BME280;15572;48.810;9.148;2023-03-19T18:22:17;98155.97;;;10.42;100.00
28312;BME280;15572;48.810;9.148;2023-03-19T18:27:15;98156.69;;;10.50;100.00
28312;BME280;15572;48.810;9.148;2023-03-19T18:32:18;98157.91;;;10.48;100.00
28312;BME280;15572;48.810;9.148;2023-03-19T18:37:17;98165.94;;;10.35;100.00
28312;BME280;15572;48.810;9.148;2023-03-19T18:42:15;98160.63;;;10.20;100.00
28312;BME280;15572;48.810;9.148;2023-03-19T18:47:12;98169.00;;;10.10;100.00
28312;BME280;15572;48.810;9.148;2023-03-19T18:52:12;98166.69;;;10.07;100.00
28312;BME280;15572;48.810;9.148;2023-03-19T18:57:11;98171.50;;;10.12;100.00
28312;BME280;15572;48.810;9.148;2023-03-19T19:02:24;98177.88;;;10.19;100.00
28312;BME280;15572;48.810;9.148;2023-03-19T19:07:23;98195.88;;;10.12;100.00
28312;BME280;15572;48.810;9.148;2023-03-19T19:12:20;98193.66;;;10.01;100.00
28312;BME280;15572;48.810;9.148;2023-03-19T19:17:18;98198.63;;;9.97;100.00
28312;BME280;15572;48.810;9.148;2023-03-19T19:22:17;98201.34;;;9.97;100.00
28312;BME280;15572;48.810;9.148;2023-03-19T19:27:15;98201.09;;;9.92;100.00
28312;BME280;15572;48.810;9.148;2023-03-19T19:32:18;98206.03;;;9.89;100.00
28312;BME280;15572;48.810;9.148;2023-03-19T19:37:17;98209.31;;;9.84;100.00
28312;BME280;15572;48.810;9.148;2023-03-19T19:42:20;98209.16;;;9.71;100.00
28312;BME280;15572;48.810;9.148;2023-03-19T19:47:32;98208.91;;;9.66;100.00
28312;BME280;15572;48.810;9.148;2023-03-19T19:52:31;98211.13;;;9.62;100.00
28312;BME280;15572;48.810;9.148;2023-03-19T19:57:27;98215.63;;;9.55;100.00
28312;BME280;15572;48.810;9.148;2023-03-19T20:02:25;98212.66;;;9.50;100.00
28312;BME280;15572;48.810;9.148;2023-03-19T20:07:23;98227.84;;;9.51;100.00
28312;BME280;15572;48.810;9.148;2023-03-19T20:12:24;98228.63;;;9.45;100.00
28312;BME280;15572;48.810;9.148;2023-03-19T20:17:21;98238.31;;;9.40;100.00
28312;BME280;15572;48.810;9.148;2023-03-19T20:22:17;98247.44;;;9.39;100.00
28312;BME280;15572;48.810;9.148;2023-03-19T20:27:16;98252.84;;;9.39;100.00
28312;BME280;15572;48.810;9.148;2023-03-19T20:32:25;98260.28;;;9.37;100.00
28312;BME280;15572;48.810;9.148;2023-03-19T20:37:22;98256.47;;;9.31;100.00
28312;BME280;15572;48.810;9.148;2023-03-19T20:42:18;98255.72;;;9.37;100.00
28312;BME280;15572;48.810;9.148;2023-03-19T20:47:16;98264.56;;;9.46;100.00
28312;BME280;15572;48.810;9.148;2023-03-19T20:52:16;98261.75;;;9.54;100.00
28312;BME280;15572;48.810;9.148;2023-03-19T20:57:13;98261.31;;;9.50;100.00
28312;BME280;15572;48.810;9.148;2023-03-19T21:02:14;98277.03;;;9.47;100.00
28312;BME280;15572;48.810;9.148;2023-03-19T21:07:28;98273.97;;;9.35;100.00
28312;BME280;15572;48.810;9.148;2023-03-19T21:12:28;98280.44;;;9.34;100.00
28312;BME280;15572;48.810;9.148;2023-03-19T21:17:26;98285.34;;;9.30;100.00
28312;BME280;15572;48.810;9.148;2023-03-19T21:22:26;98282.34;;;9.25;100.00
28312;BME280;15572;48.810;9.148;2023-03-19T21:27:25;98283.75;;;9.21;100.00
28312;BME280;15572;48.810;9.148;2023-03-19T21:32:22;98290.91;;;9.14;100.00
28312;BME280;15572;48.810;9.148;2023-03-19T21:37:19;98295.41;;;9.07;100.00
28312;BME280;15572;48.810;9.148;2023-03-19T21:42:19;98294.28;;;9.02;100.00
28312;BME280;15572;48.810;9.148;2023-03-19T21:47:18;98298.66;;;9.03;100.00
28312;BME280;15572;48.810;9.148;2023-03-19T21:52:18;98301.81;;;9.06;100.00
28312;BME280;15572;48.810;9.148;2023-03-19T21:57:17;98301.66;;;9.08;100.00
28312;BME280;15572;48.810;9.148;2023-03-19T22:02:38;98307.56;;;9.03;100.00
28312;BME280;15572;48.810;9.148;2023-03-19T22:07:35;98296.13;;;9.01;100.00
28312;BME280;15572;48.810;9.148;2023-03-19T22:12:34;98295.75;;;8.90;100.00
28312;BME280;15572;48.810;9.148;2023-03-19T22:17:31;98302.94;;;8.97;100.00
28312;BME280;15572;48.810;9.148;2023-03-19T22:22:28;98308.13;;;8.99;100.00
28312;BME280;15572;48.810;9.148;2023-03-19T22:27:26;98316.47;;;8.74;100.00
28312;BME280;15572;48.810;9.148;2023-03-19T22:32:24;98317.84;;;8.70;100.00
28312;BME280;15572;48.810;9.148;2023-03-19T22:37:25;98328.41;;;8.80;100.00
28312;BME280;15572;48.810;9.148;2023-03-19T22:42:23;98345.31;;;8.74;100.00
28312;BME280;15572;48.810;9.148;2023-03-19T22:47:24;98347.31;;;8.80;100.00
28312;BME280;15572;48.810;9.148;2023-03-19T22:52:21;98359.00;;;8.72;100.00
28312;BME280;15572;48.810;9.148;2023-03-19T22:57:18;98361.03;;;8.70;100.00
28312;BME280;15572;48.810;9.148;2023-03-19T23:02:14;98358.81;;;8.74;100.00
28312;BME280;15572;48.810;9.148;2023-03-19T23:07:12;98358.09;;;8.80;100.00
28312;BME280;15572;48.810;9.148;2023-03-19T23:12:08;98353.41;;;8.74;100.00
28312;BME280;15572;48.810;9.148;2023-03-19T23:17:13;98357.56;;;8.62;100.00
28312;BME280;15572;48.810;9.148;2023-03-19T23:22:15;98348.91;;;8.66;100.00
28312;BME280;15572;48.810;9.148;2023-03-19T23:27:20;98354.44;;;8.73;100.00
28312;BME280;15572;48.810;9.148;2023-03-19T23:32:18;98351.91;;;8.71;100.00
28312;BME280;15572;48.810;9.148;2023-03-19T23:37:16;98345.88;;;8.69;100.00
28312;BME280;15572;48.810;9.148;2023-03-19T23:42:20;98339.06;;;8.73;100.00
28312;BME280;15572;48.810;9.148;2023-03-19T23:47:19;98335.00;;;8.77;100.00
28312;BME280;15572;48.810;9.148;2023-03-19T23:52:17;98340.50;;;8.84;100.00
28312;BME280;15572;48.810;9.148;2023-03-19T23:57:14;98337.50;;;8.79;100.00
